Terminal Aerodrome Forecast
Issued by NWS Springfield, MO

Home | Current Version | Previous Version | Text Only | Print | Product List | Glossary On
Versions: 1 2 3 4 5 6 7 8 9 10 11 12 13 14 15 16 17 18 19 20
000
FTUS43 KSGF 181100
TAFSGF
TAF
KSGF 181133Z 1812/1912 13006KT 3SM -DZ BR OVC005
      TEMPO 1812/1816 2SM -RADZ BR OVC003
     FM181700 VRB04KT 5SM BR OVC005
     FM190000 05003KT 3SM BR OVC002=

USA.gov is the U.S. government's official web portal to all federal, state and local government web resources and services.